Time;durP1;ratioP1;P1;durP2;ratioP2;P2;SDS_P1;SDS_P2;PMS_P1;PMS_P2;Temp;Humidity;BMP_temperature;BMP_pressure;BME280_temperature;BME280_humidity;BME280_pressure;Samples;Min_cycle;Max_cycle;Signal;HPM_P1;HPM_P2
2022/07/04 00:00:52;;;;;;;0.60;0.60;;;13.90;99.90;;;;;;5073769;28;20662;-45
2022/07/04 00:03:17;;;;;;;0.70;0.70;;;13.90;99.90;;;;;;5073419;28;20180;-43
2022/07/04 00:05:43;;;;;;;2.17;0.70;;;13.80;99.90;;;;;;5073944;28;20191;-44
2022/07/04 00:08:09;;;;;;;1.07;0.70;;;13.80;99.90;;;;;;5073835;28;20269;-43
2022/07/04 00:10:34;;;;;;;1.23;0.80;;;13.70;99.90;;;;;;5073578;28;20695;-43
2022/07/04 00:13:00;;;;;;;0.90;0.63;;;13.70;99.90;;;;;;5074066;28;20184;-44
2022/07/04 00:15:26;;;;;;;2.17;0.90;;;13.60;99.90;;;;;;5073381;28;20203;-42
2022/07/04 00:17:51;;;;;;;0.90;0.60;;;13.60;99.90;;;;;;5073065;28;20190;-44
2022/07/04 00:20:17;;;;;;;0.83;0.80;;;13.50;99.90;;;;;;5073016;28;20579;-43
2022/07/04 00:22:44;;;;;;;0.80;0.80;;;13.50;99.90;;;;;;5074893;28;20175;-44
2022/07/04 00:25:09;;;;;;;1.20;0.90;;;13.40;99.90;;;;;;5077081;28;20653;-42
2022/07/04 00:27:35;;;;;;;1.10;0.87;;;13.30;99.90;;;;;;5075553;28;20215;-44
2022/07/04 00:30:02;;;;;;;0.80;0.70;;;13.30;99.90;;;;;;5077222;28;20243;-44
2022/07/04 00:32:27;;;;;;;2.93;0.83;;;13.20;99.90;;;;;;5077418;28;20207;-44
2022/07/04 00:34:53;;;;;;;1.00;0.90;;;13.20;99.90;;;;;;5077201;28;20644;-44
2022/07/04 00:37:19;;;;;;;0.83;0.60;;;13.20;99.90;;;;;;5076920;28;20176;-44
2022/07/04 00:39:44;;;;;;;1.40;0.90;;;13.20;99.90;;;;;;5076774;28;20235;-44
2022/07/04 00:42:10;;;;;;;1.33;0.70;;;13.20;99.90;;;;;;5077474;28;20175;-43
2022/07/04 00:44:36;;;;;;;1.00;0.90;;;13.10;99.90;;;;;;5076823;28;20693;-43
2022/07/04 00:47:03;;;;;;;1.33;0.93;;;13.10;99.90;;;;;;5075186;28;20666;-42
2022/07/04 00:49:29;;;;;;;1.13;1.03;;;13.10;99.90;;;;;;5076798;28;20208;-44
2022/07/04 00:51:55;;;;;;;2.20;0.93;;;13.00;99.90;;;;;;5076811;28;20188;-44
2022/07/04 00:54:26;;;;;;;1.40;0.90;;;13.00;99.90;;;;;;5076524;28;20211;-44
2022/07/04 00:56:53;;;;;;;3.57;1.00;;;13.00;99.90;;;;;;5076540;28;20186;-43
2022/07/04 00:59:19;;;;;;;0.83;0.83;;;13.00;99.90;;;;;;5074890;28;20204;-44
2022/07/04 01:01:45;;;;;;;0.93;0.83;;;12.90;99.90;;;;;;5076856;28;20171;-45
2022/07/04 01:04:11;;;;;;;1.20;1.00;;;12.90;99.90;;;;;;5076625;28;20779;-44
2022/07/04 01:06:37;;;;;;;0.83;0.70;;;12.80;99.90;;;;;;5076920;28;20184;-43
2022/07/04 01:09:04;;;;;;;1.37;1.00;;;12.70;99.90;;;;;;5076930;28;20214;-44
2022/07/04 01:11:29;;;;;;;0.83;0.73;;;12.70;99.90;;;;;;5076609;28;20188;-43
2022/07/04 01:13:55;;;;;;;2.10;1.00;;;12.70;99.90;;;;;;5075178;28;20180;-43
2022/07/04 01:16:23;;;;;;;1.07;0.80;;;12.70;99.90;;;;;;5076541;28;20180;-42
2022/07/04 01:18:51;;;;;;;2.50;1.43;;;12.60;99.90;;;;;;5076534;28;20199;-44
2022/07/04 01:21:18;;;;;;;1.57;0.87;;;12.60;99.90;;;;;;5076080;28;20623;-44
2022/07/04 01:23:44;;;;;;;1.00;0.90;;;12.60;99.90;;;;;;5076111;28;20227;-43
2022/07/04 01:26:10;;;;;;;1.07;0.90;;;12.50;99.90;;;;;;5077152;28;20253;-44
2022/07/04 01:28:35;;;;;;;1.27;0.87;;;12.50;99.90;;;;;;5076398;28;20187;-43
2022/07/04 01:31:01;;;;;;;0.60;0.60;;;12.40;99.90;;;;;;5076039;28;20188;-42
2022/07/04 01:33:27;;;;;;;0.93;0.73;;;12.40;99.90;;;;;;5075343;28;20184;-42
2022/07/04 01:35:53;;;;;;;1.77;0.70;;;12.30;99.90;;;;;;5075268;28;20290;-43
2022/07/04 01:38:19;;;;;;;0.77;0.70;;;12.30;99.90;;;;;;5076279;28;20184;-43
2022/07/04 01:40:45;;;;;;;1.00;1.00;;;12.20;99.90;;;;;;5076403;28;20221;-42
2022/07/04 01:43:10;;;;;;;1.47;0.67;;;12.20;99.90;;;;;;5076066;28;20185;-44
2022/07/04 01:45:39;;;;;;;0.80;0.77;;;12.20;99.90;;;;;;5075507;28;20270;-45
2022/07/04 01:48:10;;;;;;;1.80;0.80;;;12.10;99.90;;;;;;5075424;28;20244;-42
2022/07/04 01:50:36;;;;;;;1.10;0.87;;;12.00;99.90;;;;;;5075298;28;20200;-44
2022/07/04 01:53:02;;;;;;;2.70;1.10;;;12.00;99.90;;;;;;5075270;28;20229;-42
2022/07/04 01:55:29;;;;;;;1.50;1.00;;;12.00;99.90;;;;;;5075266;28;20204;-44
2022/07/04 01:57:55;;;;;;;1.20;0.90;;;11.90;99.90;;;;;;5075555;28;20210;-42
2022/07/04 02:03:05;;;;;;;1.10;0.90;;;11.90;99.90;;;;;;5075747;28;20182;-43
2022/07/04 02:05:31;;;;;;;0.80;0.80;;;11.80;99.90;;;;;;5074947;28;20188;-44
2022/07/04 02:07:57;;;;;;;1.73;0.97;;;11.80;99.90;;;;;;5074979;28;20176;-44
2022/07/04 02:10:23;;;;;;;2.03;1.10;;;11.70;99.90;;;;;;5074938;28;20342;-45
2022/07/04 02:13:03;;;;;;;0.73;0.73;;;11.70;99.90;;;;;;5075104;28;20702;-43
2022/07/04 02:15:40;;;;;;;2.20;1.00;;;11.60;99.90;;;;;;5075226;28;20544;-43
2022/07/04 02:18:09;;;;;;;3.07;1.00;;;11.60;99.90;;;;;;5075024;28;20183;-42
2022/07/04 02:20:35;;;;;;;1.53;0.97;;;11.60;99.90;;;;;;5074527;28;20582;-42
2022/07/04 02:23:01;;;;;;;2.03;1.10;;;11.50;99.90;;;;;;5074881;28;20184;-43
2022/07/04 02:25:27;;;;;;;3.73;1.20;;;11.50;99.90;;;;;;5074915;28;20195;-44
2022/07/04 02:27:53;;;;;;;1.30;1.10;;;11.50;99.90;;;;;;5074587;28;20180;-44
2022/07/04 02:30:18;;;;;;;4.10;1.10;;;11.40;99.90;;;;;;5074468;28;20199;-44
2022/07/04 02:32:44;;;;;;;1.53;0.97;;;11.40;99.90;;;;;;5074526;28;20180;-43
2022/07/04 02:35:10;;;;;;;2.13;1.20;;;11.40;99.90;;;;;;5074202;28;20632;-44
2022/07/04 02:37:37;;;;;;;2.13;1.00;;;11.30;99.90;;;;;;5074433;28;20179;-45
2022/07/04 02:40:04;;;;;;;1.10;1.00;;;11.30;99.90;;;;;;5074253;28;20196;-43
2022/07/04 02:42:34;;;;;;;1.30;1.20;;;11.20;99.90;;;;;;5074165;28;20184;-43
2022/07/04 02:45:00;;;;;;;1.27;1.10;;;11.20;99.90;;;;;;5074103;28;20229;-44
2022/07/04 02:47:26;;;;;;;1.53;1.13;;;11.10;99.90;;;;;;5074362;28;20266;-44
2022/07/04 02:49:52;;;;;;;2.10;1.33;;;11.10;99.90;;;;;;5074118;28;20202;-42
2022/07/04 02:52:18;;;;;;;1.10;1.10;;;11.00;99.90;;;;;;5074050;28;20191;-43
2022/07/04 02:54:45;;;;;;;1.57;1.13;;;10.90;99.90;;;;;;5074211;28;20203;-42
2022/07/04 02:57:11;;;;;;;1.10;1.00;;;11.00;99.90;;;;;;5074204;28;20263;-42
2022/07/04 02:59:36;;;;;;;1.87;1.20;;;11.00;99.90;;;;;;5073844;28;20276;-43
2022/07/04 03:02:02;;;;;;;1.20;1.10;;;10.90;99.90;;;;;;5074029;28;20655;-42
2022/07/04 03:04:28;;;;;;;0.97;0.90;;;10.90;99.90;;;;;;5074224;28;20180;-43
2022/07/04 03:06:53;;;;;;;1.53;1.00;;;10.80;99.90;;;;;;5073840;28;20271;-43
2022/07/04 03:09:19;;;;;;;1.20;1.10;;;10.80;99.90;;;;;;5073817;28;20244;-43
2022/07/04 03:11:45;;;;;;;2.87;1.20;;;10.80;99.90;;;;;;5073986;28;20619;-43
2022/07/04 03:14:10;;;;;;;1.33;1.00;;;10.80;99.90;;;;;;5073959;28;20237;-43
2022/07/04 03:16:36;;;;;;;0.90;0.90;;;10.80;99.90;;;;;;5073701;28;20160;-44
2022/07/04 03:19:02;;;;;;;0.80;0.80;;;10.70;99.90;;;;;;5073621;28;20198;-44
2022/07/04 03:21:28;;;;;;;5.83;1.30;;;10.70;99.90;;;;;;5073597;28;20199;-45
2022/07/04 03:23:59;;;;;;;1.30;1.10;;;10.70;99.90;;;;;;5073795;28;20584;-40
2022/07/04 03:26:30;;;;;;;0.80;0.80;;;10.70;99.90;;;;;;5073984;28;20163;-40
2022/07/04 03:28:57;;;;;;;1.73;1.10;;;10.70;99.90;;;;;;5074310;28;20254;-38
2022/07/04 03:31:23;;;;;;;1.93;1.07;;;10.70;99.90;;;;;;5073495;28;20182;-39
2022/07/04 03:33:49;;;;;;;1.20;1.10;;;10.70;99.90;;;;;;5074278;28;20176;-38
2022/07/04 03:36:15;;;;;;;1.77;1.07;;;10.60;99.90;;;;;;5073347;28;20230;-40
2022/07/04 03:38:41;;;;;;;2.60;1.10;;;10.60;99.90;;;;;;5073432;28;20179;-41
2022/07/04 03:41:06;;;;;;;1.87;1.07;;;10.60;99.90;;;;;;5073499;28;20176;-40
2022/07/04 03:43:32;;;;;;;1.10;0.87;;;10.60;99.90;;;;;;5073590;28;20172;-39
2022/07/04 03:45:58;;;;;;;1.53;1.00;;;10.60;99.90;;;;;;5073526;28;20210;-39
2022/07/04 03:48:24;;;;;;;1.00;0.90;;;10.60;99.90;;;;;;5073214;28;20658;-40
2022/07/04 03:50:49;;;;;;;1.20;1.10;;;10.60;99.90;;;;;;5073415;28;20183;-40
2022/07/04 03:53:15;;;;;;;4.47;1.10;;;10.60;99.90;;;;;;5073547;28;20258;-38
2022/07/04 03:55:42;;;;;;;1.60;1.10;;;10.60;99.90;;;;;;5073470;28;20620;-40
2022/07/04 03:58:07;;;;;;;2.60;1.00;;;10.60;99.90;;;;;;5075754;28;20174;-40
2022/07/04 04:00:33;;;;;;;2.27;1.03;;;10.60;99.90;;;;;;5077400;28;20202;-38
2022/07/04 04:02:59;;;;;;;1.10;1.00;;;10.60;99.90;;;;;;5077182;28;20572;-40
2022/07/04 04:05:27;;;;;;;2.07;1.20;;;10.70;99.90;;;;;;5077421;28;20257;-37
2022/07/04 04:07:58;;;;;;;1.50;1.27;;;10.60;99.90;;;;;;5077209;28;20522;-40
2022/07/04 04:10:26;;;;;;;2.03;1.17;;;10.60;99.90;;;;;;5077183;28;20210;-39
2022/07/04 04:12:51;;;;;;;1.37;1.00;;;10.60;99.90;;;;;;5077110;28;20179;-40
2022/07/04 04:15:17;;;;;;;1.67;1.10;;;10.70;99.90;;;;;;5075448;28;20546;-38
2022/07/04 04:17:43;;;;;;;2.73;1.20;;;10.60;99.90;;;;;;5076950;28;20190;-40
2022/07/04 04:20:08;;;;;;;1.67;1.13;;;10.60;99.90;;;;;;5076703;28;20196;-41
2022/07/04 04:22:34;;;;;;;2.30;1.10;;;10.70;99.90;;;;;;5077197;28;20172;-39
2022/07/04 04:25:00;;;;;;;1.57;1.20;;;10.70;99.90;;;;;;5076853;28;20253;-41
2022/07/04 04:27:26;;;;;;;1.53;1.10;;;10.70;99.90;;;;;;5077003;28;20209;-38
2022/07/04 04:29:52;;;;;;;2.00;1.23;;;10.70;99.90;;;;;;5076620;28;20540;-41
2022/07/04 04:32:18;;;;;;;2.73;1.47;;;10.80;99.90;;;;;;5076772;28;20171;-39
2022/07/04 04:34:43;;;;;;;2.77;1.30;;;10.80;99.90;;;;;;5075465;28;20274;-38
2022/07/04 04:37:09;;;;;;;1.40;1.13;;;10.80;99.90;;;;;;5076617;28;20201;-39
2022/07/04 04:39:34;;;;;;;1.80;1.20;;;10.80;99.90;;;;;;5076525;28;20282;-41
2022/07/04 04:42:00;;;;;;;4.17;1.30;;;10.90;99.90;;;;;;5076597;28;20179;-40
2022/07/04 04:44:26;;;;;;;1.90;1.37;;;10.90;99.90;;;;;;5076701;28;20639;-40
2022/07/04 04:46:51;;;;;;;2.67;1.60;;;11.00;99.90;;;;;;5076382;28;20186;-40
2022/07/04 04:49:18;;;;;;;3.77;1.60;;;11.00;99.90;;;;;;5076696;28;20229;-40
2022/07/04 04:51:44;;;;;;;5.27;1.70;;;11.10;99.90;;;;;;5076623;28;20568;-38
2022/07/04 04:54:09;;;;;;;2.30;1.20;;;11.10;99.90;;;;;;5076327;28;20190;-38
2022/07/04 04:56:35;;;;;;;1.73;1.43;;;11.20;99.90;;;;;;5077284;28;20743;-40
2022/07/04 04:59:00;;;;;;;1.47;1.33;;;11.20;99.90;;;;;;5077986;28;20191;-39
2022/07/04 05:01:26;;;;;;;4.13;1.67;;;11.30;99.90;;;;;;5077439;28;20179;-42
2022/07/04 05:03:52;;;;;;;3.70;1.90;;;11.30;99.90;;;;;;5078200;28;20175;-39
2022/07/04 05:06:19;;;;;;;2.87;1.57;;;11.50;99.90;;;;;;5076977;28;20230;-41
2022/07/04 05:08:44;;;;;;;1.50;1.40;;;11.50;99.90;;;;;;5076416;28;20218;-39
2022/07/04 05:11:10;;;;;;;2.33;1.80;;;11.60;99.90;;;;;;5075876;28;20188;-41
2022/07/04 05:13:36;;;;;;;4.43;1.80;;;11.70;99.90;;;;;;5077741;28;20209;-39
2022/07/04 05:16:02;;;;;;;2.30;1.70;;;11.80;99.90;;;;;;5076029;28;20246;-39
2022/07/04 05:18:27;;;;;;;3.67;2.00;;;11.80;99.90;;;;;;5075668;28;20281;-40
2022/07/04 05:20:53;;;;;;;3.57;2.17;;;12.00;99.90;;;;;;5075839;28;20230;-40
2022/07/04 05:23:18;;;;;;;3.07;1.87;;;12.10;99.90;;;;;;5075960;28;20217;-39
2022/07/04 05:25:44;;;;;;;5.63;2.30;;;12.20;99.90;;;;;;5075770;28;20182;-41
2022/07/04 05:28:10;;;;;;;2.80;1.93;;;12.30;99.90;;;;;;5076546;28;20189;-41
2022/07/04 05:30:35;;;;;;;4.17;2.30;;;12.50;99.90;;;;;;5075738;28;20257;-39
2022/07/04 05:33:01;;;;;;;2.73;2.20;;;12.60;99.90;;;;;;5075741;28;20190;-40
2022/07/04 05:35:27;;;;;;;5.87;2.40;;;12.70;99.90;;;;;;5076530;28;20214;-40
2022/07/04 05:37:53;;;;;;;5.07;2.23;;;12.80;99.90;;;;;;5075629;28;20183;-40
2022/07/04 05:40:21;;;;;;;8.27;2.93;;;13.00;99.90;;;;;;5075623;28;20273;-40
2022/07/04 05:42:47;;;;;;;2.73;2.43;;;13.10;99.90;;;;;;5076629;28;20205;-40
2022/07/04 05:45:12;;;;;;;3.27;2.37;;;13.30;99.90;;;;;;5076160;28;20646;-41
2022/07/04 05:47:38;;;;;;;4.57;2.40;;;13.40;99.90;;;;;;5076947;28;20616;-40
2022/07/04 05:50:04;;;;;;;5.13;2.43;;;13.60;99.90;;;;;;5076489;28;20211;-39
2022/07/04 05:52:29;;;;;;;2.57;2.13;;;13.70;99.90;;;;;;5076763;28;20221;-40
2022/07/04 05:54:55;;;;;;;3.20;1.90;;;13.80;99.90;;;;;;5075729;28;20289;-39
2022/07/04 05:57:21;;;;;;;2.30;1.60;;;14.00;99.90;;;;;;5074177;28;20197;-38
2022/07/04 05:59:46;;;;;;;4.47;2.20;;;14.10;99.90;;;;;;5075286;28;20560;-40
2022/07/04 06:02:13;;;;;;;6.60;1.90;;;14.30;99.90;;;;;;5075289;28;20179;-39
2022/07/04 06:04:38;;;;;;;3.33;1.40;;;14.40;99.90;;;;;;5075396;28;20183;-38
2022/07/04 06:07:04;;;;;;;2.13;1.30;;;14.70;99.90;;;;;;5075409;28;20179;-41
2022/07/04 06:09:29;;;;;;;2.37;1.63;;;14.80;99.90;;;;;;5075083;28;20226;-40
2022/07/04 06:11:55;;;;;;;5.10;1.60;;;15.00;99.90;;;;;;5075693;28;20175;-40
2022/07/04 06:14:20;;;;;;;4.57;1.70;;;15.20;99.90;;;;;;5074648;28;20448;-39
2022/07/04 06:16:46;;;;;;;1.67;1.50;;;15.30;99.90;;;;;;5074698;28;20182;-38
2022/07/04 06:19:11;;;;;;;2.67;1.90;;;15.60;99.90;;;;;;5074818;28;20195;-39
2022/07/04 06:21:37;;;;;;;1.67;1.47;;;15.80;99.90;;;;;;5074414;28;20275;-39
2022/07/04 06:24:03;;;;;;;4.07;1.67;;;16.10;99.90;;;;;;5074539;28;20211;-39
2022/07/04 06:26:29;;;;;;;3.37;1.30;;;16.30;99.90;;;;;;5076607;28;20174;-39
2022/07/04 06:28:56;;;;;;;5.57;1.50;;;16.70;99.90;;;;;;5075471;28;20200;-38
2022/07/04 06:31:21;;;;;;;1.77;1.23;;;16.90;99.90;;;;;;5073165;28;20192;-40
2022/07/04 06:36:31;;;;;;;3.77;1.40;;;17.60;99.90;;;;;;5074998;28;20198;-39
2022/07/04 06:38:57;;;;;;;1.70;1.10;;;17.90;99.90;;;;;;5074457;28;20192;-39
2022/07/04 06:41:23;;;;;;;2.03;0.87;;;18.30;99.90;;;;;;5074175;28;20709;-40
2022/07/04 06:43:49;;;;;;;2.30;1.13;;;18.50;99.90;;;;;;5074782;28;20176;-41
2022/07/04 06:46:15;;;;;;;0.97;0.67;;;18.70;99.90;;;;;;5075601;28;20168;-38
2022/07/04 06:48:40;;;;;;;2.47;0.83;;;18.90;99.90;;;;;;5074248;28;20198;-40
2022/07/04 06:51:06;;;;;;;2.97;1.03;;;19.10;99.90;;;;;;5074072;28;20195;-39
2022/07/04 06:53:32;;;;;;;1.20;0.87;;;19.40;99.90;;;;;;5072650;28;20268;-38
2022/07/04 06:55:57;;;;;;;5.87;1.00;;;19.70;99.90;;;;;;5074179;28;20204;-41
2022/07/04 06:58:23;;;;;;;2.70;1.20;;;19.80;99.90;;;;;;5074161;28;20168;-40
2022/07/04 07:00:48;;;;;;;2.73;0.77;;;20.00;99.90;;;;;;5074110;28;20179;-40
2022/07/04 07:03:14;;;;;;;1.43;0.80;;;20.00;99.90;;;;;;5073830;28;20631;-38
2022/07/04 07:05:40;;;;;;;2.43;1.10;;;20.30;99.90;;;;;;5074026;28;20183;-40
2022/07/04 07:08:05;;;;;;;4.83;0.93;;;20.40;99.90;;;;;;5072466;28;20179;-40
2022/07/04 07:10:35;;;;;;;4.43;1.10;;;20.60;99.90;;;;;;5090305;28;20229;-40
2022/07/04 07:13:01;;;;;;;2.53;1.07;;;20.80;99.90;;;;;;5093931;28;20174;-41
2022/07/04 07:15:27;;;;;;;2.50;1.07;;;21.00;99.90;;;;;;5093906;28;20669;-40
2022/07/04 07:17:53;;;;;;;3.60;0.83;;;21.20;99.90;;;;;;5093709;28;20178;-37
2022/07/04 07:20:18;;;;;;;1.87;0.60;;;21.30;99.90;;;;;;5093627;28;20207;-38
2022/07/04 07:22:44;;;;;;;2.20;0.70;;;21.40;99.90;;;;;;5094150;28;20191;-40
2022/07/04 07:25:10;;;;;;;3.10;0.67;;;21.60;99.90;;;;;;5093733;28;20178;-40
2022/07/04 07:27:36;;;;;;;1.73;0.80;;;21.80;99.90;;;;;;5093729;28;20650;-40
2022/07/04 07:30:03;;;;;;;1.33;0.70;;;21.90;99.90;;;;;;5093701;28;20206;-41
2022/07/04 07:32:28;;;;;;;2.30;0.70;;;22.00;99.90;;;;;;5093221;28;20256;-42
2022/07/04 07:34:54;;;;;;;4.50;1.10;;;22.20;99.90;;;;;;5093631;28;20733;-45
2022/07/04 07:37:21;;;;;;;3.00;0.87;;;22.30;99.90;;;;;;5094192;28;20175;-44
2022/07/04 07:39:47;;;;;;;2.60;0.90;;;22.30;99.90;;;;;;5093854;28;20242;-42
2022/07/04 07:42:13;;;;;;;3.17;1.20;;;22.30;99.90;;;;;;5093891;28;20578;-44
2022/07/04 07:44:38;;;;;;;3.53;0.90;;;22.40;99.90;;;;;;5096513;28;20171;-44
2022/07/04 07:47:04;;;;;;;1.80;0.93;;;22.60;99.90;;;;;;5095598;28;20266;-46
2022/07/04 07:49:29;;;;;;;3.63;1.07;;;22.70;99.90;;;;;;5096598;28;20207;-43
2022/07/04 07:51:56;;;;;;;4.73;0.90;;;22.60;99.90;;;;;;5096493;28;20210;-44
2022/07/04 07:54:21;;;;;;;5.73;1.40;;;22.60;99.90;;;;;;5095873;28;20533;-44
2022/07/04 07:56:47;;;;;;;1.87;1.00;;;22.60;99.90;;;;;;5096659;28;20187;-45
2022/07/04 07:59:12;;;;;;;1.87;0.80;;;22.70;99.90;;;;;;5096328;28;20195;-44
2022/07/04 08:01:38;;;;;;;3.37;1.10;;;22.80;99.90;;;;;;5097186;28;20182;-44
2022/07/04 08:06:48;;;;;;;3.50;1.20;;;23.10;99.90;;;;;;5097426;28;20162;-45
2022/07/04 08:09:14;;;;;;;4.93;1.53;;;23.20;99.90;;;;;;5096898;28;20265;-45
2022/07/04 08:11:40;;;;;;;2.40;0.90;;;23.30;99.90;;;;;;5096073;28;20175;-45
2022/07/04 08:14:07;;;;;;;4.83;1.40;;;23.30;99.90;;;;;;5096860;28;20623;-43
2022/07/04 08:16:33;;;;;;;1.90;0.90;;;23.10;99.90;;;;;;5097187;28;20224;-45
2022/07/04 08:18:59;;;;;;;2.17;0.87;;;22.90;99.90;;;;;;5096001;28;20191;-44
2022/07/04 08:21:25;;;;;;;3.20;1.10;;;22.90;99.90;;;;;;5096286;28;20204;-44
2022/07/04 08:23:50;;;;;;;3.07;1.10;;;23.00;99.90;;;;;;5095788;28;20183;-45
2022/07/04 08:26:16;;;;;;;5.70;1.63;;;22.90;99.90;;;;;;5095232;28;20183;-45
2022/07/04 08:28:41;;;;;;;2.77;1.00;;;22.90;99.90;;;;;;5095052;28;20232;-45
2022/07/04 08:31:07;;;;;;;2.83;1.03;;;23.00;99.90;;;;;;5093987;28;20639;-45
2022/07/04 08:33:32;;;;;;;2.57;1.00;;;23.20;99.90;;;;;;5095367;28;20183;-45
2022/07/04 08:35:58;;;;;;;3.53;0.93;;;23.30;99.90;;;;;;5094632;28;20198;-43
2022/07/04 08:38:24;;;;;;;2.10;0.90;;;23.30;99.90;;;;;;5094171;28;20171;-44
2022/07/04 08:40:56;;;;;;;2.40;0.60;;;23.30;99.90;;;;;;5094076;28;20183;-43
2022/07/04 08:43:23;;;;;;;1.83;0.80;;;23.40;99.90;;;;;;5095078;28;20580;-44
2022/07/04 08:45:52;;;;;;;1.37;0.70;;;23.50;99.90;;;;;;5097688;28;20179;-45
2022/07/04 08:48:22;;;;;;;3.33;0.90;;;23.70;99.90;;;;;;5098319;28;20190;-45
2022/07/04 08:50:54;;;;;;;2.80;0.63;;;23.80;99.90;;;;;;5097696;28;20273;-44
2022/07/04 08:53:21;;;;;;;2.40;0.80;;;23.80;99.90;;;;;;5098258;28;20163;-44
2022/07/04 08:58:33;;;;;;;1.30;0.70;;;23.40;99.90;;;;;;5098913;28;20587;-45
2022/07/04 09:01:04;;;;;;;2.87;0.90;;;23.50;99.90;;;;;;5099151;28;20526;-45
2022/07/04 09:03:31;;;;;;;2.53;0.87;;;23.60;99.90;;;;;;5098521;28;20179;-44
2022/07/04 09:05:58;;;;;;;1.83;0.77;;;23.70;99.90;;;;;;5098285;28;20197;-45
2022/07/04 09:08:24;;;;;;;2.87;0.70;;;23.90;99.90;;;;;;5098054;28;20183;-45
2022/07/04 09:10:51;;;;;;;1.97;0.73;;;24.10;99.90;;;;;;5098042;28;20210;-45
2022/07/04 09:13:18;;;;;;;2.67;0.97;;;24.30;99.90;;;;;;5097630;28;20673;-45
2022/07/04 09:15:46;;;;;;;1.67;0.90;;;24.40;99.90;;;;;;5098032;28;20269;-45
2022/07/04 09:18:30;;;;;;;4.40;1.07;;;24.20;99.90;;;;;;5098484;28;20167;-43
2022/07/04 09:20:59;;;;;;;3.57;0.70;;;24.20;99.90;;;;;;5096883;28;20183;-45
2022/07/04 09:23:31;;;;;;;2.10;0.80;;;24.00;99.90;;;;;;5096629;28;20207;-45
2022/07/04 09:26:25;;;;;;;3.70;0.70;;;24.10;99.90;;;;;;5096595;28;20663;-45
2022/07/04 09:28:53;;;;;;;2.23;0.93;;;24.30;99.90;;;;;;5083412;28;20213;-45
2022/07/04 09:31:24;;;;;;;2.17;0.90;;;24.30;99.90;;;;;;5096191;28;20177;-46
2022/07/04 09:33:52;;;;;;;2.00;0.87;;;24.40;99.90;;;;;;5096488;28;20171;-45
2022/07/04 09:36:24;;;;;;;2.20;0.80;;;24.50;99.90;;;;;;5096124;28;20206;-43
2022/07/04 09:39:12;;;;;;;2.27;0.93;;;24.70;99.90;;;;;;5096822;28;20244;-44
2022/07/04 09:42:01;;;;;;;2.43;1.00;;;24.80;99.90;;;;;;5096282;28;20167;-45
2022/07/04 09:44:46;;;;;;;2.60;0.93;;;25.00;99.90;;;;;;5096583;28;20170;-45
2022/07/04 09:47:27;;;;;;;1.67;0.67;;;25.10;99.90;;;;;;5096641;28;20171;-46
2022/07/04 09:50:06;;;;;;;1.40;0.70;;;25.30;99.90;;;;;;5096657;28;20281;-44
2022/07/04 09:52:53;;;;;;;5.20;0.80;;;25.40;99.90;;;;;;5096750;28;20155;-45
2022/07/04 09:55:33;;;;;;;4.30;0.87;;;25.50;99.90;;;;;;5095705;28;20203;-45
2022/07/04 09:58:01;;;;;;;2.90;0.80;;;25.40;99.90;;;;;;5096750;28;20170;-46
2022/07/04 10:00:29;;;;;;;3.40;0.83;;;25.60;99.90;;;;;;5096014;28;20210;-45
2022/07/04 10:02:56;;;;;;;1.77;0.87;;;25.60;99.90;;;;;;5096104;28;20190;-44
2022/07/04 10:05:28;;;;;;;3.20;0.77;;;25.70;99.90;;;;;;5096031;28;20232;-46
2022/07/04 10:07:58;;;;;;;1.27;0.80;;;25.50;99.90;;;;;;5095851;28;20228;-43
2022/07/04 10:10:37;;;;;;;2.40;1.03;;;25.50;99.90;;;;;;5095878;28;20207;-40
2022/07/04 10:13:08;;;;;;;3.23;0.90;;;25.60;99.90;;;;;;5095128;28;20234;-44
2022/07/04 10:15:37;;;;;;;1.85;0.75;;;25.70;99.90;;;;;;5095217;28;20238;-45
2022/07/04 10:18:03;;;;;;;2.08;0.75;;;25.80;99.90;;;;;;5095190;28;20182;-44
2022/07/04 10:20:29;;;;;;;2.72;0.80;;;26.00;99.90;;;;;;5094824;28;20708;-44
2022/07/04 10:22:55;;;;;;;1.67;0.70;;;26.20;99.90;;;;;;5094859;28;20175;-42
2022/07/04 10:25:21;;;;;;;2.33;0.90;;;26.30;99.90;;;;;;5094836;28;20183;-44
2022/07/04 10:27:50;;;;;;;5.05;0.88;;;26.40;99.90;;;;;;5094828;28;20174;-45
2022/07/04 10:30:35;;;;;;;0.70;0.68;;;26.30;99.90;;;;;;5095025;28;20226;-43
2022/07/04 10:33:03;;;;;;;0.80;0.60;;;26.40;99.90;;;;;;5095170;28;20167;-44
2022/07/04 10:35:47;;;;;;;3.50;0.82;;;26.40;99.90;;;;;;5094621;28;20207;-46
2022/07/04 10:38:14;;;;;;;4.63;0.95;;;26.30;99.90;;;;;;5094851;28;20178;-45
2022/07/04 10:40:42;;;;;;;0.68;0.50;;;26.50;99.90;;;;;;5095017;28;20203;-45
2022/07/04 10:43:42;;;;;;;1.67;0.85;;;26.50;99.90;;;;;;5095551;28;20595;-45
2022/07/04 10:46:13;;;;;;;2.15;0.80;;;26.50;99.90;;;;;;5095350;28;20179;-46
2022/07/04 10:48:55;;;;;;;2.08;1.00;;;26.50;99.90;;;;;;5094670;28;20206;-44
2022/07/04 10:51:54;;;;;;;3.03;1.00;;;26.20;99.90;;;;;;5094507;28;20650;-45
2022/07/04 10:54:34;;;;;;;4.18;0.85;;;25.60;98.60;;;;;;5094921;28;20167;-43
2022/07/04 10:57:16;;;;;;;4.68;1.50;;;25.20;99.90;;;;;;5094589;28;20167;-44
2022/07/04 11:00:01;;;;;;;3.40;1.08;;;25.20;99.90;;;;;;5094564;28;20251;-47
2022/07/04 11:02:30;;;;;;;1.60;0.88;;;25.20;99.90;;;;;;5094191;28;20246;-43
2022/07/04 11:05:00;;;;;;;3.50;1.08;;;25.40;99.90;;;;;;5094006;28;20278;-46
2022/07/04 11:07:39;;;;;;;2.60;0.80;;;25.60;99.90;;;;;;5094561;28;20193;-45
2022/07/04 11:12:54;;;;;;;2.10;0.65;;;25.60;99.90;;;;;;5094295;28;20166;-44
2022/07/04 11:15:32;;;;;;;4.13;0.95;;;25.70;99.90;;;;;;5093882;28;20215;-46
2022/07/04 11:18:11;;;;;;;0.73;0.60;;;25.90;99.90;;;;;;5094768;28;20517;-45
2022/07/04 11:20:43;;;;;;;4.97;0.90;;;26.00;99.90;;;;;;5093856;28;20210;-44
2022/07/04 11:23:15;;;;;;;1.17;0.75;;;26.10;99.90;;;;;;5094098;28;20163;-40
2022/07/04 11:25:43;;;;;;;1.42;0.80;;;26.30;99.90;;;;;;5093874;28;20177;-41
2022/07/04 11:28:29;;;;;;;0.70;0.50;;;26.50;99.90;;;;;;5094280;28;20170;-43
2022/07/04 11:30:57;;;;;;;2.38;0.93;;;26.70;99.90;;;;;;5094068;28;20521;-39
2022/07/04 11:33:26;;;;;;;1.50;0.57;;;26.80;99.90;;;;;;5093661;28;20190;-41
2022/07/04 11:36:04;;;;;;;1.45;0.75;;;27.00;99.90;;;;;;5093554;28;20218;-42
2022/07/04 11:38:54;;;;;;;3.40;1.00;;;27.20;99.90;;;;;;5093578;28;20175;-40
2022/07/04 11:47:15;;;;;;;2.90;0.93;;;26.60;97.80;;;;;;5094274;28;20221;-39
2022/07/04 11:49:52;;;;;;;1.08;0.65;;;26.50;99.90;;;;;;5093631;28;20240;-42
2022/07/04 11:52:25;;;;;;;1.42;0.85;;;26.50;99.90;;;;;;5093789;28;20186;-41
2022/07/04 11:54:52;;;;;;;3.83;0.90;;;26.50;99.90;;;;;;5093886;28;20239;-41
2022/07/04 11:57:27;;;;;;;2.25;0.90;;;26.50;98.80;;;;;;5093860;28;20182;-41
2022/07/04 12:00:04;;;;;;;1.70;0.70;;;26.40;99.90;;;;;;5093600;28;20198;-42
2022/07/04 12:02:30;;;;;;;4.25;1.08;;;26.60;99.90;;;;;;5093522;28;20159;-40
2022/07/04 12:04:57;;;;;;;1.40;0.65;;;26.90;99.90;;;;;;5093596;28;20232;-42
2022/07/04 12:07:24;;;;;;;2.38;0.80;;;27.20;99.90;;;;;;5093502;28;20244;-39
2022/07/04 12:09:50;;;;;;;1.58;0.90;;;27.40;99.90;;;;;;5093422;28;20202;-38
2022/07/04 12:12:17;;;;;;;1.30;0.80;;;27.60;99.90;;;;;;5093210;28;20254;-40
2022/07/04 12:15:06;;;;;;;2.40;0.77;;;27.50;99.90;;;;;;5093392;28;20210;-39
2022/07/04 12:17:38;;;;;;;3.58;0.98;;;27.40;99.60;;;;;;5093473;28;20232;-40
2022/07/04 12:20:13;;;;;;;2.70;0.90;;;27.30;99.90;;;;;;5097226;28;20662;-41
2022/07/04 12:22:42;;;;;;;2.03;1.10;;;27.40;99.90;;;;;;5097614;28;20216;-40
2022/07/04 12:25:22;;;;;;;2.38;0.80;;;27.70;99.90;;;;;;5097367;28;20183;-42
2022/07/04 12:27:59;;;;;;;4.10;0.80;;;27.80;99.90;;;;;;5097713;28;20162;-41
2022/07/04 12:30:27;;;;;;;2.38;0.70;;;27.90;98.70;;;;;;5097266;28;20601;-40
2022/07/04 12:33:03;;;;;;;1.25;0.60;;;27.90;99.50;;;;;;5097410;28;20235;-40
2022/07/04 12:35:47;;;;;;;1.88;0.70;;;28.00;99.90;;;;;;5097689;28;20193;-41
2022/07/04 12:38:17;;;;;;;2.17;0.70;;;28.10;99.60;;;;;;5097214;28;20182;-41
2022/07/04 12:40:53;;;;;;;5.43;0.90;;;28.20;99.90;;;;;;5097003;28;20776;-41
2022/07/04 12:43:19;;;;;;;1.70;0.68;;;28.50;99.90;;;;;;5097170;28;20189;-39
2022/07/04 12:45:50;;;;;;;0.80;0.60;;;28.60;97.40;;;;;;5097725;28;20178;-44
2022/07/04 12:48:18;;;;;;;2.28;1.00;;;28.50;96.90;;;;;;5098323;28;20170;-44
2022/07/04 12:50:44;;;;;;;1.27;0.70;;;28.20;95.10;;;;;;5097606;28;20191;-47
2022/07/04 12:53:10;;;;;;;3.13;0.70;;;27.70;96.70;;;;;;5098383;28;20175;-44
2022/07/04 12:55:41;;;;;;;2.30;0.70;;;27.30;94.60;;;;;;5098122;28;20586;-45
2022/07/04 12:58:07;;;;;;;1.42;0.60;;;26.90;96.00;;;;;;5098176;28;20179;-44
2022/07/04 13:00:32;;;;;;;1.50;0.73;;;26.90;99.10;;;;;;5098077;28;20202;-44
2022/07/04 13:02:58;;;;;;;2.65;0.80;;;27.10;97.20;;;;;;5096742;28;20542;-45
2022/07/04 13:05:23;;;;;;;3.30;0.88;;;26.90;96.40;;;;;;5097113;28;20167;-44
2022/07/04 13:07:49;;;;;;;1.15;0.65;;;26.60;96.30;;;;;;5096997;28;20257;-44
2022/07/04 13:10:15;;;;;;;5.45;1.10;;;26.30;95.30;;;;;;5096413;28;20202;-45
2022/07/04 13:12:40;;;;;;;5.38;0.82;;;26.30;97.90;;;;;;5096650;28;20258;-45